Time;durP1;ratioP1;P1;durP2;ratioP2;P2;SDS_P1;SDS_P2;PMS_P1;PMS_P2;Temp;Humidity;BMP_temperature;BMP_pressure;BME280_temperature;BME280_humidity;BME280_pressure;Samples;Min_cycle;Max_cycle;Signal;HPM_P1;HPM_P2
2022/08/13 04:01:08;;;;;;;6.07;5.80;;;17.40;99.90;;;;;;5549806;23;20579;-71
2022/08/13 04:03:40;;;;;;;6.67;6.20;;;17.30;99.90;;;;;;4895902;29;20565;-72
2022/08/13 04:06:09;;;;;;;7.20;6.70;;;17.30;99.90;;;;;;4896124;29;20497;-71
2022/08/13 04:08:37;;;;;;;6.30;5.90;;;17.30;99.90;;;;;;4898426;29;20479;-71
2022/08/13 04:11:06;;;;;;;6.10;5.90;;;17.30;99.90;;;;;;4897980;29;20493;-71
2022/08/13 04:13:36;;;;;;;6.03;5.63;;;17.30;99.90;;;;;;4897830;29;20828;-72
2022/08/13 04:16:05;;;;;;;7.00;6.50;;;17.30;99.90;;;;;;4898913;29;21247;-71
2022/08/13 04:18:35;;;;;;;5.83;5.43;;;17.30;99.90;;;;;;4899532;29;20496;-70
2022/08/13 04:21:03;;;;;;;5.97;5.47;;;17.30;99.90;;;;;;4895687;29;20496;-70
2022/08/13 04:23:30;;;;;;;7.10;6.70;;;17.30;99.90;;;;;;4893758;29;20477;-70
2022/08/13 04:25:58;;;;;;;6.83;6.53;;;17.30;99.90;;;;;;4899012;29;20574;-71
2022/08/13 04:28:24;;;;;;;6.60;6.30;;;17.40;99.90;;;;;;4897293;29;20468;-71
2022/08/13 04:30:51;;;;;;;6.30;5.90;;;17.40;99.90;;;;;;4897373;29;20551;-71
2022/08/13 04:33:18;;;;;;;6.20;5.83;;;;;;;;;;4897645;29;20528;-70
2022/08/13 04:35:47;;;;;;;6.10;5.70;;;17.40;99.90;;;;;;4896855;29;20546;-71
2022/08/13 04:38:14;;;;;;;6.73;6.23;;;17.50;99.90;;;;;;4897616;29;20823;-71
2022/08/13 04:40:43;;;;;;;6.50;6.10;;;17.50;99.90;;;;;;4890768;29;20499;-71
2022/08/13 04:43:11;;;;;;;7.47;7.03;;;17.50;99.90;;;;;;4897899;29;20505;-71
2022/08/13 04:45:39;;;;;;;6.23;5.80;;;17.60;99.90;;;;;;4897776;29;20490;-71
2022/08/13 04:48:09;;;;;;;5.97;5.60;;;17.70;99.90;;;;;;4897993;29;20486;-71
2022/08/13 04:50:37;;;;;;;6.20;5.70;;;18.20;99.90;;;;;;4893579;29;20597;-72
2022/08/13 04:53:08;;;;;;;4.77;4.50;;;18.80;99.90;;;;;;4896033;29;20501;-71
2022/08/13 04:55:37;;;;;;;5.93;5.53;;;19.40;99.90;;;;;;4896314;29;20512;-72
2022/08/13 04:58:04;;;;;;;5.13;4.87;;;20.00;99.90;;;;;;4892511;29;20563;-71
2022/08/13 05:00:32;;;;;;;4.73;4.47;;;20.60;99.90;;;;;;4886514;29;20508;-70
2022/08/13 05:03:07;;;;;;;5.37;4.77;;;20.90;99.90;;;;;;4896055;29;20791;-71
2022/08/13 05:05:35;;;;;;;4.97;4.77;;;20.90;99.90;;;;;;4894671;29;20486;-69
2022/08/13 05:08:02;;;;;;;5.20;4.90;;;20.70;99.90;;;;;;4894467;29;20485;-71
2022/08/13 05:10:31;;;;;;;5.57;5.10;;;20.50;99.90;;;;;;4894116;29;20473;-70
2022/08/13 05:13:01;;;;;;;5.10;4.70;;;20.40;99.90;;;;;;4896404;29;20934;-72
2022/08/13 05:15:28;;;;;;;5.00;4.60;;;20.20;99.90;;;;;;4892978;29;20488;-71
2022/08/13 05:17:55;;;;;;;5.20;4.80;;;20.10;99.90;;;;;;4891266;29;20965;-72
2022/08/13 05:20:21;;;;;;;5.60;5.30;;;20.00;99.90;;;;;;4894970;29;20568;-71
2022/08/13 05:22:48;;;;;;;5.50;5.20;;;19.80;99.90;;;;;;4894398;29;20970;-71
2022/08/13 05:25:15;;;;;;;4.67;4.37;;;19.80;99.90;;;;;;4895944;29;20476;-70
2022/08/13 05:27:44;;;;;;;5.57;5.17;;;19.60;99.90;;;;;;4895142;29;20479;-71
2022/08/13 05:30:13;;;;;;;5.63;5.13;;;19.60;99.90;;;;;;4894564;29;20474;-71
2022/08/13 05:32:40;;;;;;;4.90;4.50;;;19.50;99.90;;;;;;4892562;29;20562;-71
2022/08/13 05:35:10;;;;;;;5.40;5.10;;;19.50;99.90;;;;;;4890552;29;20466;-69
2022/08/13 05:37:36;;;;;;;5.50;5.10;;;19.40;99.90;;;;;;4894723;29;20515;-71
2022/08/13 05:40:05;;;;;;;5.43;5.10;;;19.40;99.90;;;;;;4889506;29;20230;-71
2022/08/13 05:42:33;;;;;;;4.53;4.23;;;19.40;99.90;;;;;;4893516;29;20546;-69
2022/08/13 05:45:01;;;;;;;4.63;4.50;;;19.40;99.90;;;;;;4895263;29;20556;-71
2022/08/13 05:47:28;;;;;;;5.60;4.87;;;19.40;99.90;;;;;;4896171;29;20463;-70
2022/08/13 05:49:55;;;;;;;4.70;4.27;;;19.40;99.90;;;;;;4893145;29;20854;-69
2022/08/13 05:52:25;;;;;;;4.77;4.60;;;19.40;99.90;;;;;;4895719;29;20491;-69
2022/08/13 05:54:56;;;;;;;4.43;4.33;;;19.40;99.90;;;;;;4893169;29;20569;-69
2022/08/13 05:57:23;;;;;;;4.67;4.57;;;19.40;99.90;;;;;;4895808;29;20570;-71
2022/08/13 06:05:22;;;;;;;5.07;4.80;;;19.60;99.90;;;;;;4895431;29;20470;-70
2022/08/13 06:07:48;;;;;;;5.40;5.03;;;19.60;99.90;;;;;;4892706;29;20884;-70
2022/08/13 06:10:15;;;;;;;4.20;4.07;;;19.70;99.90;;;;;;4895634;29;20920;-70
2022/08/13 06:12:43;;;;;;;4.60;4.40;;;20.20;99.90;;;;;;4894159;29;20468;-70
2022/08/13 06:15:11;;;;;;;3.87;3.77;;;21.00;99.90;;;;;;4895885;29;20469;-71
2022/08/13 06:17:40;;;;;;;4.10;3.90;;;21.90;99.90;;;;;;4893723;29;20955;-71
2022/08/13 06:20:08;;;;;;;4.93;4.40;;;22.80;99.90;;;;;;4895442;29;20492;-71
2022/08/13 06:22:36;;;;;;;3.93;3.83;;;23.60;99.90;;;;;;4894408;29;20507;-71
2022/08/13 06:25:05;;;;;;;6.70;4.70;;;24.20;99.90;;;;;;4895668;29;20483;-71
2022/08/13 06:27:32;;;;;;;3.80;3.60;;;24.90;99.90;;;;;;4893222;29;20503;-71
2022/08/13 06:29:59;;;;;;;4.00;3.73;;;25.30;99.90;;;;;;4895656;29;21049;-71
2022/08/13 06:32:26;;;;;;;4.10;3.90;;;25.90;99.90;;;;;;4894777;29;20485;-71
2022/08/13 06:34:55;;;;;;;4.73;4.30;;;26.40;99.90;;;;;;4895387;29;20574;-70
2022/08/13 06:37:22;;;;;;;4.50;4.13;;;27.00;99.90;;;;;;4893930;29;20576;-72
2022/08/13 06:39:52;;;;;;;3.80;3.70;;;27.50;99.90;;;;;;4893032;29;20576;-70
2022/08/13 06:42:20;;;;;;;3.40;3.20;;;27.90;98.60;;;;;;4892695;29;20601;-70
2022/08/13 06:44:47;;;;;;;3.40;3.30;;;28.10;98.00;;;;;;4883384;29;20477;-71
2022/08/13 06:47:14;;;;;;;3.60;3.30;;;28.50;97.00;;;;;;4895140;29;20475;-70
2022/08/13 06:49:40;;;;;;;3.70;3.40;;;28.40;99.90;;;;;;4892131;29;20569;-71
2022/08/13 06:52:08;;;;;;;3.87;3.57;;;28.10;99.10;;;;;;4891767;29;20495;-71
2022/08/13 06:54:35;;;;;;;3.70;3.27;;;28.20;98.00;;;;;;4893819;29;20494;-71
2022/08/13 06:57:02;;;;;;;3.70;3.50;;;28.40;96.70;;;;;;4891539;29;20479;-71
2022/08/13 06:59:33;;;;;;;3.63;3.43;;;28.50;96.50;;;;;;4893300;29;20523;-72
2022/08/13 07:02:02;;;;;;;3.73;3.50;;;28.70;96.00;;;;;;4894289;29;20582;-68
2022/08/13 07:04:28;;;;;;;3.53;3.43;;;29.00;95.30;;;;;;4887237;29;20892;-69
2022/08/13 07:06:56;;;;;;;3.63;3.43;;;29.10;94.10;;;;;;4891602;29;20482;-69
2022/08/13 07:09:24;;;;;;;3.27;3.07;;;29.20;93.70;;;;;;4892639;29;20478;-69
2022/08/13 07:11:51;;;;;;;4.40;3.53;;;29.20;93.20;;;;;;4894480;29;20486;-69
2022/08/13 07:14:18;;;;;;;3.73;3.33;;;29.40;92.90;;;;;;4891163;29;20478;-69
2022/08/13 07:16:45;;;;;;;3.80;3.60;;;29.40;92.60;;;;;;4895340;29;20529;-69
2022/08/13 07:19:13;;;;;;;3.47;3.47;;;29.40;92.50;;;;;;4892918;29;20554;-69
2022/08/13 07:21:42;;;;;;;3.70;3.50;;;29.90;91.70;;;;;;4894345;29;20916;-70
2022/08/13 07:24:09;;;;;;;3.90;3.70;;;30.00;91.20;;;;;;4886122;29;20484;-70
2022/08/13 07:26:38;;;;;;;3.30;3.10;;;29.90;90.80;;;;;;4889967;29;20482;-69
2022/08/13 07:29:07;;;;;;;3.33;3.23;;;30.00;91.10;;;;;;4885950;29;20492;-69
2022/08/13 07:31:39;;;;;;;3.00;3.00;;;30.20;90.90;;;;;;4886690;29;20585;-71
2022/08/13 07:34:06;;;;;;;3.50;3.50;;;30.50;90.60;;;;;;4892764;29;20844;-66
2022/08/13 07:36:36;;;;;;;3.60;3.60;;;30.60;89.80;;;;;;4894285;29;20467;-69
2022/08/13 07:39:07;;;;;;;3.60;3.30;;;30.10;89.90;;;;;;4894574;29;20506;-67
2022/08/13 07:41:46;;;;;;;3.60;3.27;;;29.60;90.40;;;;;;4895737;29;20571;-70
2022/08/13 07:44:20;;;;;;;3.60;3.50;;;29.00;91.10;;;;;;4891959;29;20479;-69
2022/08/13 07:46:48;;;;;;;4.30;4.10;;;28.30;91.90;;;;;;4890820;29;20474;-70
2022/08/13 07:49:16;;;;;;;4.53;4.33;;;27.80;92.70;;;;;;4892113;29;20477;-68
2022/08/13 07:51:43;;;;;;;5.50;4.20;;;27.60;93.40;;;;;;4893791;29;20833;-69
2022/08/13 07:54:11;;;;;;;4.03;3.83;;;27.30;94.10;;;;;;4894034;29;20547;-69
2022/08/13 07:56:39;;;;;;;4.20;4.10;;;27.10;94.60;;;;;;4899744;29;20480;-71
2022/08/13 07:59:09;;;;;;;3.93;3.83;;;27.10;94.20;;;;;;4891989;29;20505;-71
2022/08/13 08:01:45;;;;;;;4.27;3.97;;;26.90;94.40;;;;;;4894534;29;20472;-70
2022/08/13 08:04:15;;;;;;;5.93;4.23;;;26.80;95.00;;;;;;4893498;29;20480;-71
2022/08/13 08:06:44;;;;;;;4.50;4.20;;;26.70;95.40;;;;;;4894037;29;20563;-70
2022/08/13 08:09:12;;;;;;;4.67;4.27;;;26.60;95.60;;;;;;4890396;29;20482;-70
2022/08/13 08:14:27;;;;;;;4.30;4.00;;;26.50;96.20;;;;;;4893353;29;20472;-70
2022/08/13 08:16:54;;;;;;;4.50;4.40;;;26.30;95.80;;;;;;4895306;29;20864;-70
2022/08/13 08:19:21;;;;;;;4.53;4.33;;;26.30;96.20;;;;;;4895183;29;21012;-70
2022/08/13 08:21:48;;;;;;;3.27;3.17;;;26.40;96.00;;;;;;4892968;29;20529;-69
2022/08/13 08:24:16;;;;;;;4.60;4.20;;;26.40;96.30;;;;;;4892198;29;20535;-70
2022/08/13 08:26:46;;;;;;;4.13;4.03;;;26.40;96.80;;;;;;4896022;29;20591;-71
2022/08/13 08:29:13;;;;;;;4.10;3.90;;;26.30;96.40;;;;;;4895695;29;20559;-71
2022/08/13 08:31:42;;;;;;;3.87;3.57;;;26.30;96.20;;;;;;4896159;29;21016;-71
2022/08/13 08:34:09;;;;;;;3.60;3.50;;;26.40;96.20;;;;;;4888372;29;20543;-70
2022/08/13 08:36:40;;;;;;;3.90;3.70;;;26.50;96.50;;;;;;4894556;29;20972;-69
2022/08/13 08:44:39;;;;;;;4.43;4.27;;;26.50;96.50;;;;;;4890556;29;20563;-69
2022/08/13 08:47:08;;;;;;;4.97;4.67;;;26.40;96.60;;;;;;4896280;29;20866;-69
2022/08/13 08:49:35;;;;;;;3.43;3.33;;;26.40;97.00;;;;;;4894594;29;20480;-70
2022/08/13 08:52:03;;;;;;;4.47;4.17;;;26.50;97.20;;;;;;4895346;29;20495;-71
2022/08/13 08:54:30;;;;;;;4.23;3.53;;;26.60;96.50;;;;;;4894418;29;20861;-70
2022/08/13 08:56:58;;;;;;;4.33;4.13;;;26.60;96.50;;;;;;4895656;29;20460;-71
2022/08/13 08:59:27;;;;;;;3.97;3.77;;;26.60;95.80;;;;;;4894628;29;20554;-70
2022/08/13 09:01:56;;;;;;;3.67;3.57;;;26.70;95.80;;;;;;4895464;29;20499;-73
2022/08/13 09:04:28;;;;;;;3.63;3.47;;;26.70;95.50;;;;;;4890296;29;20831;-71
2022/08/13 09:06:58;;;;;;;4.37;4.13;;;26.80;95.80;;;;;;4888507;29;20476;-72
2022/08/13 09:09:26;;;;;;;4.10;3.90;;;26.80;95.80;;;;;;4896122;29;20586;-72
2022/08/13 09:11:55;;;;;;;3.67;3.47;;;26.90;95.30;;;;;;4892096;29;20488;-71
2022/08/13 09:14:25;;;;;;;3.80;3.60;;;26.90;95.40;;;;;;4888863;29;20469;-70
2022/08/13 09:16:54;;;;;;;3.77;3.67;;;27.00;95.00;;;;;;4887496;29;20472;-70
2022/08/13 09:19:21;;;;;;;3.40;3.30;;;27.00;95.10;;;;;;4893715;29;20491;-71
2022/08/13 09:21:49;;;;;;;3.77;3.67;;;27.10;94.90;;;;;;4896350;29;20548;-71
2022/08/13 09:24:16;;;;;;;3.70;3.57;;;27.10;95.20;;;;;;4889323;29;20477;-71
2022/08/13 09:26:47;;;;;;;3.70;3.70;;;27.20;94.90;;;;;;4896836;29;20531;-71
2022/08/13 09:29:15;;;;;;;3.70;3.40;;;27.20;95.10;;;;;;4895522;29;20531;-71
2022/08/13 09:31:44;;;;;;;4.23;3.97;;;27.20;94.80;;;;;;4882322;29;20562;-72
2022/08/13 09:34:11;;;;;;;3.80;3.60;;;27.30;94.80;;;;;;4889303;29;20511;-71
2022/08/13 09:36:40;;;;;;;4.83;4.30;;;27.40;94.60;;;;;;4895399;29;20473;-71
2022/08/13 09:39:08;;;;;;;3.37;3.30;;;27.40;95.10;;;;;;4892946;29;20475;-71
2022/08/13 09:41:41;;;;;;;4.13;3.93;;;27.50;94.70;;;;;;4895157;29;20586;-72
2022/08/13 09:44:08;;;;;;;4.50;4.20;;;27.50;94.10;;;;;;4893101;29;20580;-70
2022/08/13 09:46:35;;;;;;;4.20;3.90;;;27.60;94.20;;;;;;4895392;29;20483;-71
2022/08/13 09:49:07;;;;;;;4.67;3.97;;;27.70;94.10;;;;;;4894662;29;20484;-70
2022/08/13 09:51:35;;;;;;;4.60;3.80;;;27.90;94.40;;;;;;4895863;29;20577;-71
2022/08/13 09:54:02;;;;;;;4.10;3.90;;;27.90;93.80;;;;;;4892751;29;20568;-71
2022/08/13 09:56:32;;;;;;;4.20;4.10;;;27.90;93.90;;;;;;4895243;29;20476;-71
2022/08/13 09:58:59;;;;;;;4.70;4.50;;;28.00;94.40;;;;;;4892025;29;20891;-71
2022/08/13 10:01:26;;;;;;;4.63;4.43;;;28.00;94.30;;;;;;4893559;29;20515;-70
2022/08/13 10:03:53;;;;;;;4.30;4.20;;;28.00;94.40;;;;;;4893529;29;20527;-71
2022/08/13 10:06:19;;;;;;;4.20;4.10;;;28.10;93.90;;;;;;4895280;29;20877;-72
2022/08/13 10:08:47;;;;;;;4.27;4.17;;;28.10;94.00;;;;;;4894470;29;20475;-71
2022/08/13 10:11:15;;;;;;;5.00;4.63;;;28.10;93.90;;;;;;4892233;29;20597;-71
2022/08/13 10:13:43;;;;;;;5.10;4.80;;;28.10;94.10;;;;;;4892251;29;20475;-71
2022/08/13 10:16:11;;;;;;;4.53;4.30;;;28.10;94.00;;;;;;4894786;29;20548;-72
2022/08/13 10:18:38;;;;;;;5.03;4.83;;;28.10;94.00;;;;;;4894152;29;21030;-72
2022/08/13 10:21:05;;;;;;;5.23;4.97;;;28.30;93.60;;;;;;4894891;29;20500;-72
2022/08/13 10:23:32;;;;;;;5.27;4.90;;;28.50;93.90;;;;;;4893792;29;20476;-72
2022/08/13 10:25:59;;;;;;;5.47;5.17;;;28.70;93.50;;;;;;4893571;29;20471;-71
2022/08/13 10:28:27;;;;;;;5.00;4.83;;;28.80;92.70;;;;;;4892432;29;20499;-72
2022/08/13 10:30:55;;;;;;;4.90;4.70;;;28.90;93.10;;;;;;4891278;29;21010;-72
2022/08/13 10:33:24;;;;;;;5.43;5.13;;;28.90;93.00;;;;;;4891370;29;20475;-72
2022/08/13 10:35:55;;;;;;;5.13;5.03;;;28.90;93.60;;;;;;4893991;29;20558;-72
2022/08/13 10:38:25;;;;;;;5.50;5.17;;;28.90;93.20;;;;;;4893165;29;20522;-71
2022/08/13 10:40:52;;;;;;;5.80;5.43;;;28.90;93.20;;;;;;4892099;29;20501;-71
2022/08/13 10:43:19;;;;;;;5.63;5.40;;;28.80;92.90;;;;;;4893731;29;20981;-72
2022/08/13 10:45:46;;;;;;;6.23;6.00;;;28.60;93.40;;;;;;4894104;29;20531;-72
2022/08/13 10:48:14;;;;;;;6.60;6.30;;;28.60;93.70;;;;;;4893887;29;21200;-72
2022/08/13 10:50:42;;;;;;;6.43;6.17;;;28.50;93.50;;;;;;4892874;29;21052;-72
2022/08/13 10:53:09;;;;;;;6.67;6.37;;;28.60;94.40;;;;;;4891736;29;20495;-72
2022/08/13 10:55:56;;;;;;;6.77;6.47;;;28.70;94.10;;;;;;4886681;29;20747;-72
2022/08/13 10:58:23;;;;;;;6.40;6.10;;;28.80;93.60;;;;;;4888461;29;20477;-72
2022/08/13 11:00:49;;;;;;;6.27;5.97;;;29.00;93.50;;;;;;4891591;29;20496;-72
2022/08/13 11:03:17;;;;;;;6.20;5.90;;;29.10;93.10;;;;;;4891467;29;20468;-72
2022/08/13 11:05:44;;;;;;;6.43;6.13;;;29.10;93.40;;;;;;4888583;29;20472;-72
2022/08/13 11:08:13;;;;;;;6.30;6.00;;;29.20;93.10;;;;;;4890160;29;20535;-72
2022/08/13 11:10:40;;;;;;;6.53;6.20;;;29.40;92.60;;;;;;4895074;29;20483;-72
2022/08/13 11:13:07;;;;;;;6.23;6.03;;;29.60;92.40;;;;;;4891906;29;20506;-73
2022/08/13 11:15:34;;;;;;;5.67;5.50;;;29.70;92.20;;;;;;4896187;29;20543;-72
2022/08/13 11:18:01;;;;;;;6.60;6.23;;;29.70;92.00;;;;;;4895394;29;20534;-72
2022/08/13 11:20:30;;;;;;;6.83;6.40;;;29.70;91.80;;;;;;4895638;29;20595;-72
2022/08/13 11:22:58;;;;;;;6.50;6.30;;;29.90;91.40;;;;;;4893839;29;20479;-72
2022/08/13 11:25:25;;;;;;;5.97;5.77;;;29.90;91.60;;;;;;4893380;29;20465;-72
2022/08/13 11:27:52;;;;;;;6.07;5.77;;;29.90;91.80;;;;;;4894783;29;20476;-72
2022/08/13 11:30:19;;;;;;;6.30;5.90;;;29.90;91.70;;;;;;4894111;29;20471;-72
2022/08/13 11:32:46;;;;;;;6.20;5.90;;;29.80;91.60;;;;;;4894640;29;20220;-72
2022/08/13 11:35:13;;;;;;;7.60;6.80;;;29.70;91.60;;;;;;4895869;29;20543;-72
2022/08/13 11:37:41;;;;;;;5.63;5.40;;;29.60;91.80;;;;;;4892216;29;20523;-71
2022/08/13 11:40:09;;;;;;;6.80;6.43;;;29.70;92.70;;;;;;4894746;29;20472;-71
2022/08/13 11:42:35;;;;;;;7.30;6.80;;;29.80;92.20;;;;;;4895239;29;20495;-71
2022/08/13 11:45:02;;;;;;;7.30;6.90;;;29.90;92.20;;;;;;4893886;29;20987;-71
2022/08/13 11:47:29;;;;;;;6.13;5.80;;;29.90;91.60;;;;;;4896326;29;20476;-71
2022/08/13 11:49:56;;;;;;;6.40;6.00;;;29.90;91.90;;;;;;4895239;29;20468;-71
2022/08/13 11:52:22;;;;;;;7.37;6.90;;;29.80;92.40;;;;;;4894746;29;20575;-72
2022/08/13 11:54:50;;;;;;;6.70;6.40;;;29.90;92.00;;;;;;4898403;29;20992;-72
2022/08/13 11:57:17;;;;;;;6.80;6.40;;;29.90;92.50;;;;;;4896137;29;20493;-72
2022/08/13 11:59:44;;;;;;;6.37;5.97;;;29.90;91.80;;;;;;4898847;29;20528;-72
2022/08/13 12:02:11;;;;;;;6.50;6.20;;;29.90;91.80;;;;;;4897261;29;20510;-72
2022/08/13 12:04:38;;;;;;;6.27;5.80;;;30.00;92.40;;;;;;4900715;29;20474;-72
2022/08/13 12:07:05;;;;;;;6.50;6.20;;;30.10;92.10;;;;;;4898519;29;20499;-72
2022/08/13 12:09:31;;;;;;;6.00;5.80;;;30.20;91.40;;;;;;4898923;29;20479;-72
2022/08/13 12:11:59;;;;;;;6.63;6.13;;;30.10;91.70;;;;;;4898938;29;20551;-72
2022/08/13 12:14:26;;;;;;;6.33;6.13;;;30.10;91.80;;;;;;4900801;29;20475;-70
2022/08/13 12:16:53;;;;;;;6.27;6.03;;;30.10;92.00;;;;;;4894214;29;20483;-72
2022/08/13 12:19:19;;;;;;;7.10;6.80;;;30.10;91.70;;;;;;4892265;29;20814;-72
2022/08/13 12:21:46;;;;;;;6.53;6.27;;;30.20;92.00;;;;;;4899089;29;20495;-72
2022/08/13 12:24:13;;;;;;;6.90;6.60;;;30.20;91.60;;;;;;4896537;29;20469;-72
2022/08/13 12:26:40;;;;;;;7.87;7.17;;;30.20;91.40;;;;;;4896391;29;20480;-72
2022/08/13 12:29:08;;;;;;;6.53;6.10;;;30.20;91.00;;;;;;4898062;29;20474;-72
2022/08/13 12:31:34;;;;;;;6.20;5.90;;;30.30;91.90;;;;;;4896435;29;20498;-72
2022/08/13 12:34:01;;;;;;;6.80;6.50;;;30.20;90.80;;;;;;4897821;29;20570;-72
2022/08/13 12:36:28;;;;;;;6.77;6.47;;;30.20;90.80;;;;;;4896352;29;20520;-72
2022/08/13 12:38:54;;;;;;;6.77;6.47;;;30.30;90.80;;;;;;4897228;29;20503;-72
2022/08/13 12:41:21;;;;;;;6.40;6.20;;;30.50;90.80;;;;;;4896728;29;20602;-72
2022/08/13 12:43:48;;;;;;;6.10;5.93;;;30.60;90.70;;;;;;4897620;29;20472;-72
2022/08/13 12:46:16;;;;;;;7.10;6.60;;;30.60;90.90;;;;;;4896115;29;20535;-72
2022/08/13 12:48:42;;;;;;;6.37;6.07;;;30.60;90.70;;;;;;4897615;29;20472;-72
2022/08/13 12:51:09;;;;;;;6.60;6.40;;;30.40;91.10;;;;;;4896948;29;20498;-72
2022/08/13 12:53:36;;;;;;;7.23;7.00;;;30.30;91.00;;;;;;4896657;29;20472;-71
2022/08/13 12:56:03;;;;;;;7.03;6.53;;;30.30;91.80;;;;;;4894532;29;20499;-72
2022/08/13 12:58:30;;;;;;;6.53;6.07;;;30.30;91.30;;;;;;4896766;29;20547;-72
2022/08/13 13:00:59;;;;;;;6.60;6.30;;;30.30;91.20;;;;;;4892919;29;20508;-72
2022/08/13 13:03:27;;;;;;;6.73;6.43;;;30.20;91.20;;;;;;4896964;29;20875;-72
2022/08/13 13:05:55;;;;;;;6.40;6.20;;;30.30;90.80;;;;;;4895185;29;20474;-72
2022/08/13 13:08:25;;;;;;;143.80;129.60;;;30.20;90.80;;;;;;4895976;29;20474;-72
2022/08/13 13:10:53;;;;;;;6.53;6.27;;;30.30;91.20;;;;;;4896229;29;21002;-72
2022/08/13 13:13:23;;;;;;;6.17;5.97;;;30.30;90.60;;;;;;4893955;29;20468;-72
2022/08/13 13:15:51;;;;;;;6.93;6.63;;;30.30;90.30;;;;;;4895829;29;20475;-72
2022/08/13 13:18:20;;;;;;;7.70;7.30;;;30.30;90.20;;;;;;4896403;29;20472;-72
2022/08/13 13:20:50;;;;;;;7.53;7.13;;;30.30;90.30;;;;;;4897070;29;20488;-72
2022/08/13 13:23:19;;;;;;;6.90;6.60;;;30.40;90.80;;;;;;4895472;29;20472;-72
2022/08/13 13:25:47;;;;;;;6.60;6.40;;;30.50;90.10;;;;;;4895661;29;20476;-72
2022/08/13 13:28:16;;;;;;;7.20;6.80;;;30.50;90.50;;;;;;4895476;29;20548;-72
2022/08/13 13:30:44;;;;;;;7.50;7.20;;;30.40;89.90;;;;;;4881803;29;20499;-72
2022/08/13 13:33:12;;;;;;;7.77;7.37;;;30.40;90.20;;;;;;4895215;29;20510;-72
2022/08/13 13:35:40;;;;;;;7.33;6.80;;;30.40;90.40;;;;;;4895110;29;20564;-72
2022/08/13 13:38:10;;;;;;;6.90;6.57;;;30.60;90.30;;;;;;4895175;29;20852;-72
2022/08/13 13:40:38;;;;;;;7.53;7.03;;;30.60;90.20;;;;;;4896810;29;20484;-72
2022/08/13 13:43:05;;;;;;;7.00;6.70;;;30.50;90.10;;;;;;4891276;29;20576;-72
2022/08/13 13:45:33;;;;;;;7.67;7.10;;;30.40;91.30;;;;;;4895973;29;20476;-71
2022/08/13 13:48:00;;;;;;;7.57;7.27;;;30.20;90.70;;;;;;4895693;29;20535;-71
2022/08/13 13:50:27;;;;;;;7.80;7.40;;;30.00;91.10;;;;;;4896600;29;20476;-72
2022/08/13 13:52:54;;;;;;;7.33;6.93;;;29.70;91.10;;;;;;4893944;29;20472;-72
2022/08/13 13:55:22;;;;;;;7.63;7.23;;;29.60;91.60;;;;;;4896522;29;20472;-72
2022/08/13 13:57:50;;;;;;;7.83;7.20;;;29.40;91.70;;;;;;4895294;29;20476;-72
2022/08/13 14:00:16;;;;;;;7.33;7.00;;;29.40;92.10;;;;;;4894111;29;20483;-72
2022/08/13 14:02:52;;;;;;;7.20;6.70;;;29.40;92.40;;;;;;4893989;29;20855;-72
2022/08/13 14:05:19;;;;;;;7.50;7.10;;;29.40;92.50;;;;;;4892558;29;20558;-71
2022/08/13 14:07:53;;;;;;;8.00;7.60;;;29.40;92.10;;;;;;4895426;29;20571;-72
2022/08/13 14:10:22;;;;;;;8.40;7.80;;;29.40;92.10;;;;;;4894439;29;20532;-72
2022/08/13 14:12:50;;;;;;;9.67;8.97;;;29.40;92.30;;;;;;4895083;29;20463;-72
2022/08/13 14:15:18;;;;;;;7.43;7.13;;;29.40;92.40;;;;;;4894007;29;20483;-72
2022/08/13 14:17:45;;;;;;;8.80;8.40;;;29.40;92.50;;;;;;4895704;29;20470;-72
2022/08/13 14:20:13;;;;;;;8.57;8.10;;;29.40;92.50;;;;;;4891325;29;20480;-72
2022/08/13 14:22:40;;;;;;;8.60;8.00;;;29.40;92.80;;;;;;4895013;29;20532;-72
2022/08/13 14:25:10;;;;;;;9.00;8.13;;;29.40;92.80;;;;;;4893971;29;20479;-72
2022/08/13 14:27:39;;;;;;;8.70;8.10;;;29.40;93.20;;;;;;4895667;29;20476;-72
2022/08/13 14:30:07;;;;;;;8.60;8.10;;;29.40;93.00;;;;;;4894732;29;20480;-72
2022/08/13 14:32:35;;;;;;;8.57;8.07;;;29.30;93.20;;;;;;4895160;29;20480;-72
2022/08/13 14:35:05;;;;;;;8.40;7.77;;;29.20;93.00;;;;;;4893666;29;20864;-72
2022/08/13 14:37:50;;;;;;;8.50;8.03;;;29.20;92.90;;;;;;4894807;29;20552;-72
2022/08/13 14:40:18;;;;;;;8.37;7.67;;;29.20;93.50;;;;;;4894778;29;20472;-72
2022/08/13 14:42:49;;;;;;;7.27;6.97;;;29.20;93.50;;;;;;4893585;29;20499;-72
2022/08/13 14:48:05;;;;;;;7.67;7.23;;;29.50;92.70;;;;;;4894137;29;20467;-72
2022/08/13 14:50:33;;;;;;;7.80;7.40;;;29.60;92.60;;;;;;4895449;29;21003;-72
2022/08/13 14:53:00;;;;;;;7.20;6.73;;;29.80;92.20;;;;;;4893096;29;20480;-72
2022/08/13 14:55:28;;;;;;;8.10;7.47;;;29.70;92.20;;;;;;4896052;29;20523;-72
2022/08/13 14:57:58;;;;;;;7.77;7.27;;;29.70;91.90;;;;;;4894291;29;20540;-72
2022/08/13 15:00:32;;;;;;;7.77;7.47;;;29.70;91.90;;;;;;4891928;29;20558;-72
2022/08/13 15:03:16;;;;;;;8.23;7.80;;;29.70;92.20;;;;;;4893404;29;20858;-72
2022/08/13 15:05:44;;;;;;;7.17;6.77;;;29.70;92.20;;;;;;4893457;29;20562;-73
2022/08/13 15:08:15;;;;;;;7.47;6.97;;;29.60;91.80;;;;;;4892577;29;20488;-73
2022/08/13 15:10:50;;;;;;;7.53;7.03;;;29.60;91.80;;;;;;4895428;29;20799;-73
2022/08/13 15:13:25;;;;;;;7.50;7.20;;;29.70;92.30;;;;;;4889918;29;20535;-73
2022/08/13 15:16:00;;;;;;;8.00;7.47;;;29.70;91.90;;;;;;4894845;29;20472;-73
2022/08/13 15:18:37;;;;;;;8.10;7.50;;;29.70;92.20;;;;;;4894590;29;20475;-73
2022/08/13 15:21:04;;;;;;;7.57;7.17;;;29.80;91.80;;;;;;4894377;29;20503;-73
2022/08/13 15:23:33;;;;;;;8.43;7.83;;;29.70;92.30;;;;;;4893477;29;20865;-72
2022/08/13 15:26:14;;;;;;;7.20;6.80;;;29.60;92.60;;;;;;4894406;29;20515;-72
2022/08/13 15:28:48;;;;;;;7.63;7.13;;;29.40;92.80;;;;;;4886929;29;20478;-72
2022/08/13 15:31:25;;;;;;;10.90;7.63;;;29.20;93.40;;;;;;4894149;29;20498;-72
2022/08/13 15:33:57;;;;;;;8.30;7.77;;;29.00;93.60;;;;;;4893617;29;20480;-73
2022/08/13 15:36:27;;;;;;;8.00;7.60;;;28.90;93.90;;;;;;4894229;29;20472;-72
2022/08/13 15:38:54;;;;;;;8.43;8.03;;;28.90;94.10;;;;;;4892586;29;20472;-72
2022/08/13 15:41:24;;;;;;;7.63;7.33;;;28.90;94.00;;;;;;4893475;29;20499;-72
2022/08/13 15:43:53;;;;;;;9.07;8.47;;;29.00;94.00;;;;;;4894090;29;20484;-72
2022/08/13 15:46:20;;;;;;;8.07;7.60;;;28.90;94.00;;;;;;4893857;29;20475;-72
2022/08/13 15:48:51;;;;;;;8.60;7.80;;;28.90;94.00;;;;;;4894155;29;20475;-72
2022/08/13 15:51:27;;;;;;;8.57;7.90;;;28.90;93.90;;;;;;4894033;29;20835;-72
2022/08/13 15:54:00;;;;;;;7.97;7.50;;;28.90;94.10;;;;;;4894110;29;20468;-73
2022/08/13 15:56:32;;;;;;;8.27;7.73;;;29.00;94.60;;;;;;4892949;29;20471;-72
2022/08/13 15:59:02;;;;;;;8.53;7.90;;;28.90;94.60;;;;;;4895702;29;20480;-73
2022/08/13 16:01:31;;;;;;;8.87;8.33;;;28.90;94.50;;;;;;4897419;29;20510;-72
2022/08/13 16:04:10;;;;;;;8.83;8.13;;;28.90;94.20;;;;;;4897780;29;20555;-72
2022/08/13 16:06:40;;;;;;;9.17;8.50;;;28.80;94.10;;;;;;4888513;29;21002;-72
2022/08/13 16:09:17;;;;;;;8.00;7.50;;;28.80;94.70;;;;;;4894143;29;20472;-73
2022/08/13 16:12:00;;;;;;;8.70;8.20;;;28.90;94.10;;;;;;4897028;29;20574;-72
2022/08/13 16:14:29;;;;;;;8.17;7.77;;;28.80;94.30;;;;;;4897596;29;20471;-73
2022/08/13 16:16:58;;;;;;;8.70;8.10;;;28.80;94.30;;;;;;4894896;29;20511;-72
2022/08/13 16:19:27;;;;;;;8.17;7.67;;;28.90;94.10;;;;;;4898118;29;20463;-72
2022/08/13 16:21:53;;;;;;;8.50;7.90;;;29.00;93.60;;;;;;4896884;29;20500;-72
2022/08/13 16:24:20;;;;;;;7.63;7.10;;;29.00;94.00;;;;;;4896991;29;20491;-72
2022/08/13 16:26:47;;;;;;;7.67;7.27;;;29.20;94.10;;;;;;4896410;29;20476;-72
2022/08/13 16:29:14;;;;;;;8.37;7.70;;;29.20;93.50;;;;;;4897069;29;20471;-72
2022/08/13 16:31:44;;;;;;;7.93;7.43;;;29.20;94.00;;;;;;4896528;29;20488;-72
2022/08/13 16:34:13;;;;;;;7.87;7.37;;;29.20;93.60;;;;;;4897251;29;20523;-72
2022/08/13 16:36:40;;;;;;;7.87;7.37;;;29.30;93.60;;;;;;4879952;29;20786;-72
2022/08/13 16:39:08;;;;;;;8.03;7.63;;;29.40;93.30;;;;;;4895873;29;20498;-72
2022/08/13 16:41:36;;;;;;;7.50;7.10;;;29.40;93.70;;;;;;4896651;29;20498;-73
2022/08/13 16:44:04;;;;;;;7.03;6.63;;;29.40;93.70;;;;;;4897094;29;20519;-73
2022/08/13 16:46:33;;;;;;;7.67;7.30;;;29.40;93.10;;;;;;4897255;29;20981;-72
2022/08/13 16:49:03;;;;;;;8.37;7.87;;;29.40;93.60;;;;;;4894773;29;20495;-73
2022/08/13 16:51:32;;;;;;;8.93;8.30;;;29.30;93.40;;;;;;4897265;29;20543;-73
2022/08/13 16:53:59;;;;;;;7.90;7.40;;;29.20;93.60;;;;;;4896188;29;21008;-72
2022/08/13 16:56:26;;;;;;;6.80;6.50;;;29.10;93.50;;;;;;4897126;29;20464;-72
2022/08/13 16:58:54;;;;;;;7.87;7.47;;;29.10;93.20;;;;;;4895642;29;20524;-72
2022/08/13 17:01:21;;;;;;;7.87;7.37;;;29.00;93.50;;;;;;4896948;29;20579;-72
2022/08/13 17:09:18;;;;;;;7.13;6.73;;;28.90;93.60;;;;;;4896178;29;20830;-73
2022/08/13 17:11:47;;;;;;;6.63;6.33;;;28.90;93.10;;;;;;4893457;29;21000;-73
2022/08/13 17:14:16;;;;;;;6.90;6.50;;;28.90;92.60;;;;;;4893739;29;20467;-73
2022/08/13 17:16:44;;;;;;;7.20;6.60;;;28.90;92.80;;;;;;4895386;29;20922;-73